createdAt,value
2018-09-28T00:01:41.711Z,10.59
2018-09-28T00:03:53.924Z,10.54
2018-09-28T00:06:06.216Z,10.53
2018-09-28T00:08:18.408Z,10.50
2018-09-28T00:10:30.642Z,10.49
2018-09-28T00:12:42.847Z,10.49
2018-09-28T00:14:55.010Z,10.45
2018-09-28T00:17:07.307Z,10.42
2018-09-28T00:19:19.538Z,10.38
2018-09-28T00:21:31.767Z,10.40
2018-09-28T00:23:43.977Z,10.43
2018-09-28T00:25:56.204Z,10.46
2018-09-28T00:28:08.982Z,10.50
2018-09-28T00:30:21.185Z,10.54
2018-09-28T00:32:33.371Z,10.53
2018-09-28T00:34:45.574Z,10.48
2018-09-28T00:36:57.757Z,10.45
2018-09-28T00:39:10.206Z,10.45
2018-09-28T00:41:22.456Z,10.41
2018-09-28T00:43:34.618Z,10.36
2018-09-28T00:45:46.814Z,10.33
2018-09-28T00:47:58.979Z,10.24
2018-09-28T00:50:11.185Z,10.19
2018-09-28T00:52:23.399Z,10.15
2018-09-28T00:54:35.585Z,10.14
2018-09-28T00:56:47.768Z,10.15
2018-09-28T00:58:59.990Z,10.13
2018-09-28T01:01:12.197Z,10.10
2018-09-28T01:03:24.440Z,10.11
2018-09-28T01:05:36.646Z,10.12
2018-09-28T01:07:48.819Z,10.14
2018-09-28T01:10:01.063Z,10.11
2018-09-28T01:12:13.266Z,10.09
2018-09-28T01:14:25.432Z,10.06
2018-09-28T01:16:37.650Z,10.02
2018-09-28T01:18:49.895Z,10.03
2018-09-28T01:21:02.219Z,10.06
2018-09-28T01:23:14.382Z,10.06
2018-09-28T01:25:26.612Z,10.07
2018-09-28T01:27:38.864Z,10.07
2018-09-28T01:29:51.074Z,10.09
2018-09-28T01:32:03.283Z,10.12
2018-09-28T01:34:15.451Z,10.10
2018-09-28T01:36:27.703Z,10.13
2018-09-28T01:38:39.960Z,10.11
2018-09-28T01:40:52.153Z,10.08
2018-09-28T01:43:04.365Z,10.11
2018-09-28T01:45:16.596Z,10.11
2018-09-28T01:47:28.793Z,10.04
2018-09-28T01:49:41.027Z,9.97
2018-09-28T01:51:53.266Z,9.94
2018-09-28T01:54:05.493Z,9.87
2018-09-28T01:56:17.726Z,9.83
2018-09-28T01:58:29.927Z,9.79
2018-09-28T02:00:42.134Z,9.82
2018-09-28T02:02:54.315Z,9.84
2018-09-28T02:05:06.503Z,9.86
2018-09-28T02:07:18.708Z,9.85
2018-09-28T02:09:30.881Z,9.84
2018-09-28T02:11:43.064Z,9.86
2018-09-28T02:13:55.258Z,9.84
2018-09-28T02:16:07.495Z,9.80
2018-09-28T02:18:19.696Z,9.75
2018-09-28T02:20:31.866Z,9.75
2018-09-28T02:22:44.111Z,9.69
2018-09-28T02:24:56.301Z,9.68
2018-09-28T02:27:08.486Z,9.73
2018-09-28T02:29:20.662Z,9.79
2018-09-28T02:31:32.824Z,9.84
2018-09-28T02:33:45.016Z,9.90
2018-09-28T02:35:57.242Z,9.91
2018-09-28T02:38:09.449Z,9.85
2018-09-28T02:40:21.630Z,9.79
2018-09-28T02:42:33.821Z,9.68
2018-09-28T02:44:45.996Z,9.64
2018-09-28T02:46:58.178Z,9.67
2018-09-28T02:49:10.361Z,9.67
2018-09-28T02:51:22.555Z,9.67
2018-09-28T02:53:34.778Z,9.63
2018-09-28T02:55:48.364Z,9.57
2018-09-28T02:58:00.560Z,9.57
2018-09-28T03:00:12.758Z,9.53
2018-09-28T03:02:24.968Z,9.49
2018-09-28T03:04:37.255Z,9.49
2018-09-28T03:06:49.460Z,9.49
2018-09-28T03:09:01.668Z,9.49
2018-09-28T03:11:13.903Z,9.49
2018-09-28T03:13:26.124Z,9.49
2018-09-28T03:15:38.324Z,9.47
2018-09-28T03:17:50.592Z,9.49
2018-09-28T03:20:02.982Z,9.48
2018-09-28T03:22:15.184Z,9.50
2018-09-28T03:24:27.379Z,9.49
2018-09-28T03:26:39.558Z,9.50
2018-09-28T03:28:51.826Z,9.45
2018-09-28T03:31:04.028Z,9.40
2018-09-28T03:33:16.238Z,9.39
2018-09-28T03:35:28.436Z,9.35
2018-09-28T03:37:40.623Z,9.29
2018-09-28T03:39:52.852Z,9.27
2018-09-28T03:42:05.053Z,9.24
2018-09-28T03:44:17.248Z,9.19
2018-09-28T03:46:29.451Z,9.16
2018-09-28T03:48:41.610Z,9.16
2018-09-28T03:50:53.808Z,9.24
2018-09-28T03:53:06.048Z,9.25
2018-09-28T03:55:18.307Z,9.25
2018-09-28T03:57:30.486Z,9.25
2018-09-28T03:59:42.699Z,9.24
2018-09-28T04:01:55.072Z,9.23
2018-09-28T04:04:07.300Z,9.21
2018-09-28T04:06:19.531Z,9.17
2018-09-28T04:08:31.739Z,9.18
2018-09-28T04:10:43.979Z,9.18
2018-09-28T04:12:56.181Z,9.15
2018-09-28T04:15:08.505Z,9.13
2018-09-28T04:17:20.675Z,9.09
2018-09-28T04:19:32.855Z,9.07
2018-09-28T04:21:48.824Z,9.03
2018-09-28T04:24:01.000Z,9.01
2018-09-28T04:26:13.246Z,8.98
2018-09-28T04:28:25.450Z,8.97
2018-09-28T04:30:37.655Z,8.97
2018-09-28T04:32:49.932Z,8.97
2018-09-28T04:35:02.169Z,8.96
2018-09-28T04:37:14.491Z,8.98
2018-09-28T04:39:26.698Z,8.97
2018-09-28T04:41:38.872Z,9.10
2018-09-28T04:43:51.075Z,9.09
2018-09-28T04:46:03.290Z,9.07
2018-09-28T04:48:15.478Z,9.04
2018-09-28T04:50:27.736Z,9.02
2018-09-28T04:52:39.979Z,8.98
2018-09-28T04:54:52.161Z,8.94
2018-09-28T04:57:05.167Z,8.93
2018-09-28T04:59:17.358Z,8.96
2018-09-28T05:01:29.551Z,9.02
2018-09-28T05:03:41.739Z,9.03
2018-09-28T05:05:53.966Z,9.00
2018-09-28T05:08:06.213Z,8.98
2018-09-28T05:10:18.691Z,8.93
2018-09-28T05:12:30.889Z,8.91
2018-09-28T05:14:43.080Z,8.90
2018-09-28T05:16:55.265Z,8.88
2018-09-28T05:19:07.883Z,8.82
2018-09-28T05:21:20.080Z,8.84
2018-09-28T05:23:32.614Z,8.84
2018-09-28T05:25:44.832Z,8.82
2018-09-28T05:27:57.064Z,8.78
2018-09-28T05:30:09.264Z,8.77
2018-09-28T05:32:21.660Z,8.83
2018-09-28T05:34:33.725Z,8.90
2018-09-28T05:36:45.904Z,8.97
2018-09-28T05:38:58.176Z,9.04
2018-09-28T05:41:10.431Z,9.08
2018-09-28T05:43:22.608Z,9.14
2018-09-28T05:45:34.813Z,9.18
2018-09-28T05:47:47.014Z,9.18
2018-09-28T05:49:59.280Z,9.20
2018-09-28T05:52:11.886Z,9.21
2018-09-28T05:54:24.087Z,9.26
2018-09-28T05:56:36.303Z,9.30
2018-09-28T05:58:54.097Z,9.38
2018-09-28T06:01:12.297Z,9.46
2018-09-28T06:03:24.480Z,9.51
2018-09-28T06:05:39.329Z,9.59
2018-09-28T06:07:51.530Z,9.67
2018-09-28T06:10:03.792Z,9.73
2018-09-28T06:12:16.013Z,9.79
2018-09-28T06:14:28.192Z,9.88
2018-09-28T06:16:40.392Z,9.86
2018-09-28T06:18:52.663Z,9.84
2018-09-28T06:21:04.830Z,9.86
2018-09-28T06:23:17.087Z,9.83
2018-09-28T06:25:29.275Z,9.86
2018-09-28T06:27:41.494Z,9.91
2018-09-28T06:29:53.783Z,9.98
2018-09-28T06:32:05.918Z,10.09
2018-09-28T06:34:18.087Z,10.19
2018-09-28T06:36:30.327Z,10.31
2018-09-28T06:38:42.588Z,10.57
2018-09-28T06:40:54.762Z,11.04
2018-09-28T06:43:06.966Z,11.49
2018-09-28T06:45:19.184Z,12.03
2018-09-28T06:47:31.467Z,12.55
2018-09-28T06:49:43.646Z,13.03
2018-09-28T06:51:55.871Z,13.37
2018-09-28T06:54:08.097Z,13.80
2018-09-28T06:56:20.328Z,14.22
2018-09-28T06:58:32.524Z,14.53
2018-09-28T07:00:44.705Z,14.85
2018-09-28T07:02:56.914Z,15.23
2018-09-28T07:05:09.111Z,15.49
2018-09-28T07:07:21.310Z,15.75
2018-09-28T07:09:33.560Z,16.01
2018-09-28T07:11:45.746Z,16.33
2018-09-28T07:13:57.925Z,16.69
2018-09-28T07:16:10.154Z,16.95
2018-09-28T07:18:22.351Z,17.17
2018-09-28T07:20:34.514Z,17.30
2018-09-28T07:22:46.719Z,17.45
2018-09-28T07:24:58.935Z,17.64
2018-09-28T07:27:11.135Z,17.75
2018-09-28T07:29:23.355Z,17.91
2018-09-28T07:31:35.530Z,18.12
2018-09-28T07:33:47.725Z,18.30
2018-09-28T07:35:59.982Z,18.40
2018-09-28T07:38:12.099Z,18.54
2018-09-28T07:40:24.298Z,18.68
2018-09-28T07:42:36.500Z,18.82
2018-09-28T07:44:48.691Z,19.29
2018-09-28T07:47:00.926Z,19.72
2018-09-28T07:49:13.153Z,19.75
2018-09-28T07:51:25.377Z,19.68
2018-09-28T07:53:37.574Z,19.59
2018-09-28T07:55:49.834Z,19.53
2018-09-28T07:58:02.042Z,19.47
2018-09-28T08:00:14.279Z,19.51
2018-09-28T08:02:26.487Z,19.62
2018-09-28T08:04:38.672Z,19.66
2018-09-28T08:06:50.918Z,19.74
2018-09-28T08:09:03.921Z,19.89
2018-09-28T08:11:16.150Z,19.97
2018-09-28T08:13:28.376Z,19.88
2018-09-28T08:15:40.598Z,19.99
2018-09-28T08:17:52.835Z,20.20
2018-09-28T08:20:05.172Z,20.37
2018-09-28T08:22:17.401Z,20.43
2018-09-28T08:24:29.627Z,20.32
2018-09-28T08:26:41.807Z,20.37
2018-09-28T08:28:53.987Z,20.49
2018-09-28T08:31:06.209Z,20.42
2018-09-28T08:33:18.444Z,20.43
2018-09-28T08:35:30.634Z,20.50
2018-09-28T08:37:42.825Z,20.51
2018-09-28T08:39:56.428Z,20.45
2018-09-28T08:42:08.619Z,20.55
2018-09-28T08:44:24.945Z,20.52
2018-09-28T08:46:37.132Z,20.51
2018-09-28T08:48:49.371Z,20.53
2018-09-28T08:51:01.595Z,20.56
2018-09-28T08:53:13.793Z,20.61
2018-09-28T08:55:26.104Z,20.58
2018-09-28T08:57:38.267Z,20.62
2018-09-28T08:59:50.561Z,20.59
2018-09-28T09:02:02.907Z,20.73
2018-09-28T09:04:15.092Z,20.81
2018-09-28T09:06:27.327Z,20.88
2018-09-28T09:08:39.487Z,20.74
2018-09-28T09:10:51.724Z,20.60
2018-09-28T09:13:03.940Z,20.66
2018-09-28T09:15:16.131Z,20.69
2018-09-28T09:17:28.335Z,20.83
2018-09-28T09:19:40.522Z,20.89
2018-09-28T09:21:52.899Z,20.91
2018-09-28T09:24:05.212Z,20.89
2018-09-28T09:26:17.354Z,20.96
2018-09-28T09:28:29.676Z,21.04
2018-09-28T09:30:41.922Z,21.03
2018-09-28T09:32:54.223Z,21.09
2018-09-28T09:35:06.439Z,21.05
2018-09-28T09:37:18.866Z,21.01
2018-09-28T09:39:31.064Z,21.01
2018-09-28T09:41:43.328Z,21.15
2018-09-28T09:43:55.587Z,21.26
2018-09-28T09:46:07.820Z,21.40
2018-09-28T09:48:20.098Z,21.50
2018-09-28T09:50:32.386Z,21.58
2018-09-28T09:52:44.619Z,21.51
2018-09-28T09:54:56.824Z,21.51
2018-09-28T09:57:09.131Z,21.54
2018-09-28T09:59:21.375Z,21.66
2018-09-28T10:01:39.197Z,21.64
2018-09-28T10:03:51.420Z,21.65
2018-09-28T10:06:03.615Z,21.73
2018-09-28T10:08:15.914Z,21.75
2018-09-28T10:10:28.115Z,21.71
2018-09-28T10:12:40.371Z,21.78
2018-09-28T10:14:52.561Z,21.87
2018-09-28T10:17:04.763Z,21.91
2018-09-28T10:19:17.061Z,21.92
2018-09-28T10:21:29.231Z,21.95
2018-09-28T10:23:41.453Z,21.97
2018-09-28T10:25:53.688Z,22.02
2018-09-28T10:28:05.964Z,22.13
2018-09-28T10:30:18.179Z,22.10
2018-09-28T10:32:30.355Z,22.12
2018-09-28T10:34:42.685Z,22.09
2018-09-28T10:36:54.808Z,22.14
2018-09-28T10:39:07.640Z,22.22
2018-09-28T10:41:19.863Z,22.32
2018-09-28T10:43:32.125Z,22.40
2018-09-28T10:45:44.341Z,22.46
2018-09-28T10:47:56.535Z,22.37
2018-09-28T10:50:08.761Z,22.28
2018-09-28T10:52:21.139Z,22.24
2018-09-28T10:54:33.239Z,22.20
2018-09-28T10:56:45.503Z,22.23
2018-09-28T10:58:57.845Z,22.12
2018-09-28T11:01:09.951Z,22.16
2018-09-28T11:03:22.251Z,22.11
2018-09-28T11:05:34.443Z,22.19
2018-09-28T11:07:46.658Z,22.21
2018-09-28T11:09:58.924Z,22.22
2018-09-28T11:12:11.154Z,22.25
2018-09-28T11:14:25.240Z,22.36
2018-09-28T11:16:37.819Z,22.35
2018-09-28T11:18:50.067Z,22.21
2018-09-28T11:21:02.289Z,22.18
2018-09-28T11:23:14.498Z,22.23
2018-09-28T11:25:26.736Z,22.30
2018-09-28T11:27:38.980Z,22.29
2018-09-28T11:29:51.153Z,22.36
2018-09-28T11:32:03.353Z,22.41
2018-09-28T11:34:15.628Z,22.43
2018-09-28T11:36:27.805Z,22.38
2018-09-28T11:38:40.000Z,22.37
2018-09-28T11:40:52.225Z,22.28
2018-09-28T11:43:04.464Z,22.26
2018-09-28T11:45:16.709Z,22.30
2018-09-28T11:47:28.921Z,22.37
2018-09-28T11:49:41.160Z,22.35
2018-09-28T11:51:53.372Z,22.31
2018-09-28T11:54:05.568Z,22.21
2018-09-28T11:56:17.828Z,22.20
2018-09-28T11:58:30.062Z,22.19
2018-09-28T12:00:42.291Z,22.16
2018-09-28T12:02:54.475Z,22.16
2018-09-28T12:05:06.848Z,22.15
2018-09-28T12:07:19.086Z,22.17
2018-09-28T12:09:31.363Z,22.16
2018-09-28T12:11:43.550Z,22.16
2018-09-28T12:13:55.779Z,22.13
2018-09-28T12:16:08.268Z,22.06
2018-09-28T12:18:20.687Z,21.97
2018-09-28T12:20:32.844Z,21.91
2018-09-28T12:22:45.122Z,21.85
2018-09-28T12:24:57.341Z,21.82
2018-09-28T12:27:09.649Z,21.85
2018-09-28T12:29:21.848Z,21.81
2018-09-28T12:31:34.106Z,21.86
2018-09-28T12:33:46.428Z,21.84
2018-09-28T12:35:58.595Z,21.85
2018-09-28T12:38:10.881Z,21.83
2018-09-28T12:40:23.139Z,21.74
2018-09-28T12:42:35.447Z,21.72
2018-09-28T12:44:47.742Z,21.66
2018-09-28T12:47:01.005Z,21.63
2018-09-28T12:49:13.250Z,21.63
2018-09-28T12:51:25.540Z,21.67
2018-09-28T12:53:37.813Z,21.65
2018-09-28T12:55:50.067Z,21.67
2018-09-28T12:58:02.387Z,21.65
2018-09-28T13:00:14.621Z,21.64
2018-09-28T13:02:26.864Z,21.65
2018-09-28T13:04:39.036Z,21.57
2018-09-28T13:06:52.570Z,21.53
2018-09-28T13:09:06.099Z,21.54
2018-09-28T13:11:18.312Z,21.50
2018-09-28T13:13:30.637Z,21.49
2018-09-28T13:15:42.853Z,21.48
2018-09-28T13:17:55.033Z,21.44
2018-09-28T13:20:07.358Z,21.42
2018-09-28T13:22:19.603Z,21.40
2018-09-28T13:24:31.966Z,21.42
2018-09-28T13:26:44.212Z,21.40
2018-09-28T13:28:56.396Z,21.39
2018-09-28T13:31:08.632Z,21.41
2018-09-28T13:33:20.866Z,21.44
2018-09-28T13:35:33.147Z,21.48
2018-09-28T13:37:45.393Z,21.50
2018-09-28T13:39:57.616Z,21.53
2018-09-28T13:42:09.871Z,21.56
2018-09-28T13:44:22.106Z,21.56
2018-09-28T13:46:34.360Z,21.59
2018-09-28T13:48:46.912Z,21.63
2018-09-28T13:50:59.186Z,21.59
2018-09-28T13:53:11.461Z,21.56
2018-09-28T13:55:23.716Z,21.52
2018-09-28T13:57:35.943Z,21.45
2018-09-28T13:59:48.275Z,21.49
2018-09-28T14:02:00.541Z,21.48
2018-09-28T14:04:12.808Z,21.46
2018-09-28T14:06:25.092Z,21.43
2018-09-28T14:08:37.392Z,21.41
2018-09-28T14:10:49.705Z,21.39
2018-09-28T14:13:01.896Z,21.37
2018-09-28T14:15:14.178Z,21.27
2018-09-28T14:17:26.434Z,21.23
2018-09-28T14:19:38.626Z,21.24
2018-09-28T14:21:50.936Z,21.24
2018-09-28T14:24:03.134Z,21.24
2018-09-28T14:26:15.347Z,21.26
2018-09-28T14:28:27.668Z,21.29
2018-09-28T14:30:39.896Z,21.24
2018-09-28T14:32:52.436Z,21.21
2018-09-28T14:35:04.757Z,21.20
2018-09-28T14:37:17.062Z,21.19
2018-09-28T14:39:29.264Z,21.16
2018-09-28T14:41:41.522Z,21.14
2018-09-28T14:43:53.769Z,21.13
2018-09-28T14:46:06.484Z,21.10
2018-09-28T14:48:18.777Z,21.07
2018-09-28T14:50:30.976Z,21.04
2018-09-28T14:52:43.271Z,21.01
2018-09-28T14:54:55.604Z,20.97
2018-09-28T14:57:07.839Z,20.89
2018-09-28T14:59:20.038Z,20.89
2018-09-28T15:01:32.530Z,20.89
2018-09-28T15:03:44.639Z,20.88
2018-09-28T15:05:56.895Z,20.89
2018-09-28T15:08:09.142Z,20.90
2018-09-28T15:10:21.482Z,20.88
2018-09-28T15:12:33.679Z,20.79
2018-09-28T15:14:46.031Z,20.75
2018-09-28T15:16:58.254Z,20.75
2018-09-28T15:19:10.598Z,20.74
2018-09-28T15:21:22.842Z,20.68
2018-09-28T15:23:35.099Z,20.62
2018-09-28T15:25:47.363Z,20.55
2018-09-28T15:27:59.650Z,20.52
2018-09-28T15:30:11.903Z,20.52
2018-09-28T15:32:24.224Z,20.52
2018-09-28T15:34:36.440Z,20.52
2018-09-28T15:36:48.639Z,20.46
2018-09-28T15:39:00.874Z,20.47
2018-09-28T15:41:13.199Z,20.45
2018-09-28T15:43:25.436Z,20.46
2018-09-28T15:45:37.686Z,20.42
2018-09-28T15:47:50.119Z,20.34
2018-09-28T15:50:02.313Z,20.27
2018-09-28T15:52:14.536Z,20.29
2018-09-28T15:54:26.820Z,20.27
2018-09-28T15:56:39.131Z,20.25
2018-09-28T15:58:51.399Z,20.26
2018-09-28T16:01:03.646Z,20.27
2018-09-28T16:03:15.911Z,20.23
2018-09-28T16:05:28.159Z,20.22
2018-09-28T16:07:40.443Z,20.20
2018-09-28T16:09:52.653Z,20.18
2018-09-28T16:12:05.041Z,20.15
2018-09-28T16:14:17.224Z,20.12
2018-09-28T16:16:29.497Z,20.08
2018-09-28T16:18:42.297Z,20.04
2018-09-28T16:20:54.435Z,20.02
2018-09-28T16:23:06.732Z,20.02
2018-09-28T16:25:18.945Z,19.97
2018-09-28T16:27:31.288Z,19.92
2018-09-28T16:29:43.515Z,19.89
2018-09-28T16:31:55.724Z,19.84
2018-09-28T16:34:07.957Z,19.76
2018-09-28T16:36:20.328Z,19.71
2018-09-28T16:38:32.797Z,19.66
2018-09-28T16:40:45.027Z,19.64
2018-09-28T16:42:57.291Z,19.58
2018-09-28T16:45:09.572Z,19.51
2018-09-28T16:47:21.875Z,19.50
2018-09-28T16:49:34.131Z,19.44
2018-09-28T16:51:46.371Z,19.37
2018-09-28T16:53:58.654Z,19.33
2018-09-28T16:56:10.879Z,19.30
2018-09-28T16:58:23.112Z,19.27
2018-09-28T17:00:36.311Z,19.26
2018-09-28T17:02:48.664Z,19.24
2018-09-28T17:05:00.915Z,19.22
2018-09-28T17:07:13.158Z,19.18
2018-09-28T17:09:25.424Z,19.17
2018-09-28T17:11:37.683Z,19.13
2018-09-28T17:13:49.964Z,19.10
2018-09-28T17:16:02.214Z,19.08
2018-09-28T17:18:14.468Z,19.04
2018-09-28T17:20:26.747Z,18.99
2018-09-28T17:22:38.986Z,18.94
2018-09-28T17:24:51.232Z,18.95
2018-09-28T17:27:03.933Z,18.94
2018-09-28T17:29:16.135Z,18.89
2018-09-28T17:31:28.412Z,18.76
2018-09-28T17:33:40.616Z,18.75
2018-09-28T17:35:52.938Z,18.73
2018-09-28T17:38:05.371Z,18.69
2018-09-28T17:40:17.624Z,18.66
2018-09-28T17:42:29.845Z,18.58
2018-09-28T17:44:42.067Z,18.53
2018-09-28T17:46:54.309Z,18.49
2018-09-28T17:49:06.620Z,18.46
2018-09-28T17:51:18.907Z,18.41
2018-09-28T17:53:31.176Z,18.45
2018-09-28T17:55:43.485Z,18.45
2018-09-28T17:57:55.815Z,18.38
2018-09-28T18:00:08.384Z,18.35
2018-09-28T18:02:20.606Z,18.30
2018-09-28T18:04:32.951Z,18.27
2018-09-28T18:06:45.147Z,18.19
2018-09-28T18:08:57.413Z,18.10
2018-09-28T18:11:09.654Z,18.12
2018-09-28T18:13:21.926Z,18.10
2018-09-28T18:15:34.174Z,18.10
2018-09-28T18:17:46.430Z,18.05
2018-09-28T18:19:58.684Z,17.99
2018-09-28T18:22:10.988Z,17.97
2018-09-28T18:24:23.301Z,17.90
2018-09-28T18:26:35.733Z,17.82
2018-09-28T18:28:48.014Z,17.67
2018-09-28T18:31:00.234Z,17.54
2018-09-28T18:33:12.475Z,17.43
2018-09-28T18:35:24.693Z,17.37
2018-09-28T18:37:36.972Z,17.26
2018-09-28T18:39:49.377Z,17.14
2018-09-28T18:42:01.688Z,17.04
2018-09-28T18:44:13.965Z,16.84
2018-09-28T18:46:26.187Z,16.71
2018-09-28T18:48:38.425Z,16.63
2018-09-28T18:50:50.673Z,16.60
2018-09-28T18:53:02.925Z,16.53
2018-09-28T18:55:15.192Z,16.44
2018-09-28T18:57:27.450Z,16.41
2018-09-28T18:59:39.726Z,16.21
2018-09-28T19:01:51.970Z,16.17
2018-09-28T19:04:04.178Z,16.14
2018-09-28T19:06:16.549Z,16.17
2018-09-28T19:08:28.660Z,16.16
2018-09-28T19:10:40.902Z,16.16
2018-09-28T19:12:53.420Z,16.17
2018-09-28T19:15:05.793Z,16.14
2018-09-28T19:17:18.071Z,16.09
2018-09-28T19:19:30.384Z,16.11
2018-09-28T19:21:42.653Z,16.07
2018-09-28T19:23:54.895Z,16.06
2018-09-28T19:26:07.396Z,16.00
2018-09-28T19:28:19.665Z,16.02
2018-09-28T19:30:32.085Z,15.94
2018-09-28T19:32:44.201Z,15.91
2018-09-28T19:34:56.491Z,15.82
2018-09-28T19:37:08.786Z,15.68
2018-09-28T19:39:21.033Z,15.63
2018-09-28T19:41:33.263Z,15.60
2018-09-28T19:43:45.507Z,15.47
2018-09-28T19:45:57.776Z,15.35
2018-09-28T19:48:10.007Z,15.26
2018-09-28T19:50:22.291Z,15.31
2018-09-28T19:52:34.513Z,15.32
2018-09-28T19:54:46.830Z,15.26
2018-09-28T19:56:59.055Z,15.21
2018-09-28T19:59:11.323Z,15.21
2018-09-28T20:01:23.540Z,15.21
2018-09-28T20:03:35.759Z,15.20
2018-09-28T20:05:47.990Z,15.24
2018-09-28T20:08:00.209Z,15.23
2018-09-28T20:10:12.531Z,15.24
2018-09-28T20:12:24.783Z,15.22
2018-09-28T20:14:37.014Z,15.21
2018-09-28T20:16:49.319Z,15.19
2018-09-28T20:19:01.662Z,15.00
2018-09-28T20:21:13.979Z,14.95
2018-09-28T20:23:26.327Z,15.00
2018-09-28T20:25:38.634Z,14.95
2018-09-28T20:27:50.892Z,14.79
2018-09-28T20:30:03.213Z,14.69
2018-09-28T20:32:15.447Z,14.56
2018-09-28T20:34:27.718Z,14.46
2018-09-28T20:36:39.979Z,14.36
2018-09-28T20:38:52.228Z,14.27
2018-09-28T20:41:04.467Z,14.26
2018-09-28T20:43:16.734Z,14.24
2018-09-28T20:45:29.002Z,14.24
2018-09-28T20:47:41.296Z,14.21
2018-09-28T20:49:53.610Z,14.17
2018-09-28T20:52:06.065Z,14.21
2018-09-28T20:54:18.324Z,14.25
2018-09-28T20:56:30.559Z,14.23
2018-09-28T20:58:42.807Z,14.24
2018-09-28T21:00:55.103Z,14.29
2018-09-28T21:03:07.324Z,14.33
2018-09-28T21:05:19.545Z,14.30
2018-09-28T21:07:31.895Z,14.29
2018-09-28T21:09:44.097Z,14.33
2018-09-28T21:11:56.431Z,14.32
2018-09-28T21:14:08.738Z,14.31
2018-09-28T21:16:20.962Z,14.31
2018-09-28T21:18:33.266Z,14.25
2018-09-28T21:20:45.469Z,14.22
2018-09-28T21:22:57.697Z,14.21
2018-09-28T21:25:09.955Z,14.18
2018-09-28T21:27:22.211Z,14.17
2018-09-28T21:29:34.491Z,14.19
2018-09-28T21:31:46.715Z,14.17
2018-09-28T21:33:59.028Z,14.20
2018-09-28T21:36:11.250Z,14.21
2018-09-28T21:38:23.512Z,14.11
2018-09-28T21:42:53.751Z,14.08
2018-09-28T21:45:05.999Z,14.11
2018-09-28T21:47:18.244Z,14.11
2018-09-28T21:49:30.518Z,14.08
2018-09-28T21:51:42.754Z,14.08
2018-09-28T21:53:54.979Z,14.09
2018-09-28T21:56:07.207Z,14.11
2018-09-28T21:58:19.512Z,14.09
2018-09-28T22:00:36.357Z,14.09
2018-09-28T22:02:48.587Z,14.10
2018-09-28T22:05:00.855Z,14.12
2018-09-28T22:07:13.066Z,14.13
2018-09-28T22:09:25.302Z,14.05
2018-09-28T22:11:37.523Z,14.10
2018-09-28T22:13:49.845Z,14.09
2018-09-28T22:16:02.032Z,14.07
2018-09-28T22:18:14.260Z,14.10
2018-09-28T22:20:26.512Z,14.10
2018-09-28T22:22:38.699Z,14.03
2018-09-28T22:24:51.002Z,14.01
2018-09-28T22:27:03.239Z,14.00
2018-09-28T22:29:15.480Z,14.00
2018-09-28T22:31:27.671Z,13.98
2018-09-28T22:33:39.890Z,13.97
2018-09-28T22:35:52.093Z,13.92
2018-09-28T22:38:04.306Z,13.96
2018-09-28T22:40:16.712Z,14.00
2018-09-28T22:42:29.020Z,13.96
2018-09-28T22:44:41.245Z,13.89
2018-09-28T22:46:53.455Z,13.84
2018-09-28T22:49:05.781Z,13.79
2018-09-28T22:51:18.055Z,13.80
2018-09-28T22:53:30.236Z,13.82
2018-09-28T22:55:42.471Z,13.80
2018-09-28T22:57:54.694Z,13.80
2018-09-28T23:00:07.026Z,13.83
2018-09-28T23:02:19.254Z,13.84
2018-09-28T23:04:31.438Z,13.89
2018-09-28T23:06:43.711Z,13.86
2018-09-28T23:08:55.930Z,13.80
2018-09-28T23:11:08.375Z,13.79
2018-09-28T23:13:20.558Z,13.76
2018-09-28T23:15:32.767Z,13.76
2018-09-28T23:17:44.988Z,13.74
2018-09-28T23:19:57.194Z,13.73
2018-09-28T23:22:09.448Z,13.78
2018-09-28T23:24:21.722Z,13.77
2018-09-28T23:26:33.937Z,13.75
2018-09-28T23:28:46.114Z,13.76
2018-09-28T23:30:58.317Z,13.77
2018-09-28T23:33:10.695Z,13.74
2018-09-28T23:35:22.904Z,13.66
2018-09-28T23:37:35.196Z,13.65
2018-09-28T23:39:47.438Z,13.65
2018-09-28T23:41:59.682Z,13.68
2018-09-28T23:44:11.887Z,13.67
2018-09-28T23:46:24.089Z,13.67
2018-09-28T23:48:36.282Z,13.64
2018-09-28T23:50:48.502Z,13.65
2018-09-28T23:53:00.747Z,13.65
2018-09-28T23:55:16.047Z,13.66
2018-09-28T23:57:28.258Z,13.67
2018-09-28T23:59:40.502Z,13.65
